Crane Gaia — 3FXX2 — position and weather

sailwx.info

Track history (hours):
 
Tides and Currents Weather Stations Pressure Air Temp Water Temp Dewpoint Dewpoint Depression Visibility Wind Speed Wind Dir Waves Ship Positions

Crane Gaia

Last reported at 2015-May-23 04:33 UTC. Time now 2015-May-28 18:12 UTC.
Position N 22°25' E 119°57'.

Length 115 m; draft 5.5 m.

Type: Tanker. MMSI: 352461000.

Date/timePositionNaut miles runAvg speedWind from/ knotsBaromVisibWave heightAir tempDewpointWater temp
2015-May-23 04:33N 22°25' E 119°57'1312.9
2015-May-23 03:33N 22°34' E 120°07'9 9.2
2015-May-23 02:33N 22°36' E 120°17'1 1.5
2015-May-23 01:33N 22°35' E 120°18'0 0.0
2015-May-22 14:27N 22°35' E 120°18'0 0.0
2015-May-22 11:15N 22°35' E 120°18'0 0.0
2015-May-22 08:21N 22°35' E 120°18'0 0.0
2015-May-22 06:08N 22°35' E 120°18'3 5.7
2015-May-22 05:34N 22°37' E 120°16'5 4.9
2015-May-22 04:33N 22°38' E 120°10'1110.8
2015-May-22 03:33N 22°46' E 120°02'  
2015-May-17 20:33N 34°53' E 140°16'1413.5
2015-May-17 19:32N 35°02' E 140°28'1512.6
2015-May-17 18:18N 35°13' E 140°42'1012.1
2015-May-17 17:31N 35°21' E 140°48'1211.9
2015-May-17 16:31N 35°31' E 140°56'1212.4
2015-May-17 15:33N 35°42' E 141°00'1313.4
2015-May-17 14:33N 35°55' E 140°56'1111.0
2015-May-17 13:33N 35°58' E 140°43'3 0.3
2015-May-17 01:12N 35°55' E 140°41'3 4.5
2015-May-17 00:33N 35°57' E 140°42'7 7.1
2015-May-16 23:33N 35°56' E 140°51'1512.9
2015-May-16 22:23N 35°43' E 140°60'1214.3
2015-May-16 21:33N 35°31' E 140°56'1414.3
2015-May-16 20:33N 35°19' E 140°47'1413.5
2015-May-16 19:32N 35°09' E 140°36'1313.2
2015-May-16 18:33N 35°03' E 140°22'1313.2
2015-May-16 17:32N 34°55' E 140°08'1713.5
2015-May-16 16:18N 34°47' E 139°50'1013.0
2015-May-16 15:33N 34°43' E 139°40'  
2015-May-13 09:16N 31°03' E 127°07'3713.5
2015-May-13 06:31N 30°35' E 126°39'1514.5
2015-May-13 05:30N 30°25' E 126°27'1314.2
2015-May-13 04:34N 30°15' E 126°15'  
Track history (hours):
 
Tides and Currents Weather Stations Pressure Air Temp Water Temp Dewpoint Dewpoint Depression Visibility Wind Speed Wind Dir Waves Ship Positions

Crane Gaia

Last reported at 2015-May-23 04:33 UTC. Time now 2015-May-28 18:12 UTC.
Position N 22°25' E 119°57'.

Length 115 m; draft 5.5 m.

Type: Tanker. MMSI: 352461000.

Date/timePositionNaut miles runAvg speedWind from/ knotsBaromVisibWave heightAir tempDewpointWater temp
2015-May-23 04:33N 22°25' E 119°57'1312.9
2015-May-23 03:33N 22°34' E 120°07'9 9.2
2015-May-23 02:33N 22°36' E 120°17'1 1.5
2015-May-23 01:33N 22°35' E 120°18'0 0.0
2015-May-22 14:27N 22°35' E 120°18'0 0.0
2015-May-22 11:15N 22°35' E 120°18'0 0.0
2015-May-22 08:21N 22°35' E 120°18'0 0.0
2015-May-22 06:08N 22°35' E 120°18'3 5.7
2015-May-22 05:34N 22°37' E 120°16'5 4.9
2015-May-22 04:33N 22°38' E 120°10'1110.8
2015-May-22 03:33N 22°46' E 120°02'  
2015-May-17 20:33N 34°53' E 140°16'1413.5
2015-May-17 19:32N 35°02' E 140°28'1512.6
2015-May-17 18:18N 35°13' E 140°42'1012.1
2015-May-17 17:31N 35°21' E 140°48'1211.9
2015-May-17 16:31N 35°31' E 140°56'1212.4
2015-May-17 15:33N 35°42' E 141°00'1313.4
2015-May-17 14:33N 35°55' E 140°56'1111.0
2015-May-17 13:33N 35°58' E 140°43'3 0.3
2015-May-17 01:12N 35°55' E 140°41'3 4.5
2015-May-17 00:33N 35°57' E 140°42'7 7.1
2015-May-16 23:33N 35°56' E 140°51'1512.9
2015-May-16 22:23N 35°43' E 140°60'1214.3
2015-May-16 21:33N 35°31' E 140°56'1414.3
2015-May-16 20:33N 35°19' E 140°47'1413.5
2015-May-16 19:32N 35°09' E 140°36'1313.2
2015-May-16 18:33N 35°03' E 140°22'1313.2
2015-May-16 17:32N 34°55' E 140°08'1713.5
2015-May-16 16:18N 34°47' E 139°50'1013.0
2015-May-16 15:33N 34°43' E 139°40'  
2015-May-13 09:16N 31°03' E 127°07'3713.5
2015-May-13 06:31N 30°35' E 126°39'1514.5
2015-May-13 05:30N 30°25' E 126°27'1314.2
2015-May-13 04:34N 30°15' E 126°15'  

Dump ship's entire track history